Pagina principale
METAR-TAF:

METAR-TAF

Aeroporti :

Aeroporto di Latina

Latina, Italia

latitudine: 41-33N, longitudine: 012-54E, altezza: 25 m

Osservazione

Il bollettino è stato emesso 53 minuti fa, alle 13:55 UTC
Vento 7 kt da sud/sud-est
Temperature 17°C
Umidità 72%
Pressione 1014 hPa
Visibilità 10 km o più
Poco nuvoloso ad un'altezza di 2500 ft

METAR: LIRL 061355Z 15007KT 9999 FEW025 17/12 Q1014 RMK SCT SCT200 MON LIB NC VIS MIN 9999 WIND THR12 /////KT WIND THR30 12006KT BLU

Ora: 15:48 (14:48 UTC)

Previsione

Il bollettino è stato emesso 48 minuti fa, alle 14:00 UTC
Previsione valida dal 06 alle 15 UTC al 06 alle 24 UTC
Vento 6 kt da sud-est
Visibilità 10 km o più
Poco nuvoloso ad un'altezza di 2500 ft

TAF: LIRL 061400Z 0615/0624 14006KT 9999 FEW025

Osservazioni e previsioni meteorologiche di più di 4000 aeroporti (messaggi METAR e TAF).

Le stazioni disponibili sono rappresentate dai dischi gialli e rossi sulla carta.

Puntare il mouse per vedere il nome della stazione.

Clicca sopra per visualizzare le osservazioni e previsioni meteorologiche.

Per cambiare la mappa : fare clic sui pulsanti verdi con una croce nera per ingrandire, il pulsante verde con un trattino per diminuire, o sulla freccia verde per le mappe adiacenti.


METAR-TAF: